sensor_id;sensor_type;location;lat;lon;timestamp;pressure;altitude;pressure_sealevel;temperature;humidity
52535;BME280;38443;53.164;5.802;2022-11-13T00:02:22;102990.78;;;4.02;100.00
52535;BME280;38443;53.164;5.802;2022-11-13T00:04:47;102984.47;;;3.98;100.00
52535;BME280;38443;53.164;5.802;2022-11-13T00:07:12;102987.09;;;3.97;100.00
52535;BME280;38443;53.164;5.802;2022-11-13T00:09:38;102988.78;;;3.95;100.00
52535;BME280;38443;53.164;5.802;2022-11-13T00:12:03;102980.66;;;3.90;100.00
52535;BME280;38443;53.164;5.802;2022-11-13T00:14:28;102983.22;;;3.87;100.00
52535;BME280;38443;53.164;5.802;2022-11-13T00:16:54;102977.97;;;3.89;100.00
52535;BME280;38443;53.164;5.802;2022-11-13T00:19:19;102977.06;;;3.88;100.00
52535;BME280;38443;53.164;5.802;2022-11-13T00:21:44;102968.16;;;3.86;100.00
52535;BME280;38443;53.164;5.802;2022-11-13T00:24:10;102970.75;;;3.85;100.00
52535;BME280;38443;53.164;5.802;2022-11-13T00:26:35;102962.88;;;3.86;100.00
52535;BME280;38443;53.164;5.802;2022-11-13T00:29:02;102966.59;;;3.93;100.00
52535;BME280;38443;53.164;5.802;2022-11-13T00:31:28;102957.19;;;4.01;100.00
52535;BME280;38443;53.164;5.802;2022-11-13T00:33:53;102958.97;;;4.02;100.00
52535;BME280;38443;53.164;5.802;2022-11-13T00:36:24;102955.50;;;4.03;100.00
52535;BME280;38443;53.164;5.802;2022-11-13T00:38:50;102943.97;;;4.03;100.00
52535;BME280;38443;53.164;5.802;2022-11-13T00:41:16;102942.25;;;4.03;100.00
52535;BME280;38443;53.164;5.802;2022-11-13T00:43:41;102935.13;;;4.02;100.00
52535;BME280;38443;53.164;5.802;2022-11-13T00:46:07;102930.72;;;4.03;100.00
52535;BME280;38443;53.164;5.802;2022-11-13T00:48:33;102927.22;;;4.04;100.00
52535;BME280;38443;53.164;5.802;2022-11-13T00:50:59;102922.81;;;4.04;100.00
52535;BME280;38443;53.164;5.802;2022-11-13T00:53:25;102930.72;;;4.03;100.00
52535;BME280;38443;53.164;5.802;2022-11-13T00:55:50;102929.88;;;4.04;100.00
52535;BME280;38443;53.164;5.802;2022-11-13T00:58:16;102932.34;;;3.97;100.00
52535;BME280;38443;53.164;5.802;2022-11-13T01:00:43;102933.19;;;3.96;100.00
52535;BME280;38443;53.164;5.802;2022-11-13T01:03:09;102932.16;;;3.91;100.00
52535;BME280;38443;53.164;5.802;2022-11-13T01:05:36;102934.59;;;3.85;100.00
52535;BME280;38443;53.164;5.802;2022-11-13T01:08:02;102945.97;;;3.83;100.00
52535;BME280;38443;53.164;5.802;2022-11-13T01:10:28;102944.19;;;3.82;100.00
52535;BME280;38443;53.164;5.802;2022-11-13T01:12:53;102948.47;;;3.78;100.00
52535;BME280;38443;53.164;5.802;2022-11-13T01:15:18;102950.38;;;3.82;100.00
52535;BME280;38443;53.164;5.802;2022-11-13T01:17:44;102951.28;;;3.83;100.00
52535;BME280;38443;53.164;5.802;2022-11-13T01:20:09;102946.09;;;3.86;100.00
52535;BME280;38443;53.164;5.802;2022-11-13T01:22:35;102939.91;;;3.85;100.00
52535;BME280;38443;53.164;5.802;2022-11-13T01:25:00;102950.63;;;3.90;100.00
52535;BME280;38443;53.164;5.802;2022-11-13T01:27:25;102947.09;;;3.89;100.00
52535;BME280;38443;53.164;5.802;2022-11-13T01:29:51;102943.56;;;3.90;100.00
52535;BME280;38443;53.164;5.802;2022-11-13T01:32:16;102937.44;;;3.91;100.00
52535;BME280;38443;53.164;5.802;2022-11-13T01:34:41;102940.19;;;3.94;100.00
52535;BME280;38443;53.164;5.802;2022-11-13T01:37:07;102924.34;;;3.96;100.00
52535;BME280;38443;53.164;5.802;2022-11-13T01:39:32;102922.56;;;3.96;100.00
52535;BME280;38443;53.164;5.802;2022-11-13T01:41:57;102929.69;;;3.97;100.00
52535;BME280;38443;53.164;5.802;2022-11-13T01:44:23;102927.94;;;3.98;100.00
52535;BME280;38443;53.164;5.802;2022-11-13T01:46:52;102933.22;;;3.98;100.00
52535;BME280;38443;53.164;5.802;2022-11-13T01:49:37;102925.28;;;3.98;100.00
52535;BME280;38443;53.164;5.802;2022-11-13T01:52:08;102921.88;;;4.02;100.00
52535;BME280;38443;53.164;5.802;2022-11-13T01:54:38;102917.47;;;4.03;100.00
52535;BME280;38443;53.164;5.802;2022-11-13T01:57:05;102914.03;;;4.05;100.00
52535;BME280;38443;53.164;5.802;2022-11-13T01:59:31;102911.38;;;4.05;100.00
52535;BME280;38443;53.164;5.802;2022-11-13T02:01:58;102903.47;;;4.07;100.00
52535;BME280;38443;53.164;5.802;2022-11-13T02:04:24;102899.91;;;4.06;100.00
52535;BME280;38443;53.164;5.802;2022-11-13T02:06:53;102902.56;;;4.06;100.00
52535;BME280;38443;53.164;5.802;2022-11-13T02:09:22;102898.16;;;4.07;100.00
52535;BME280;38443;53.164;5.802;2022-11-13T02:11:49;102899.91;;;4.06;100.00
52535;BME280;38443;53.164;5.802;2022-11-13T02:14:14;102892.84;;;4.05;100.00
52535;BME280;38443;53.164;5.802;2022-11-13T02:16:42;102890.19;;;4.05;100.00
52535;BME280;38443;53.164;5.802;2022-11-13T02:19:24;102892.09;;;4.09;100.00
52535;BME280;38443;53.164;5.802;2022-11-13T02:24:39;102890.44;;;4.14;100.00
52535;BME280;38443;53.164;5.802;2022-11-13T02:27:07;102894.03;;;4.16;100.00
52535;BME280;38443;53.164;5.802;2022-11-13T02:29:34;102909.19;;;4.20;100.00
52535;BME280;38443;53.164;5.802;2022-11-13T02:32:01;102917.25;;;4.24;100.00
52535;BME280;38443;53.164;5.802;2022-11-13T02:34:26;102910.31;;;4.29;100.00
52535;BME280;38443;53.164;5.802;2022-11-13T02:36:51;102906.88;;;4.31;100.00
52535;BME280;38443;53.164;5.802;2022-11-13T02:39:17;102899.81;;;4.32;100.00
52535;BME280;38443;53.164;5.802;2022-11-13T02:41:42;102906.00;;;4.32;100.00
52535;BME280;38443;53.164;5.802;2022-11-13T02:44:07;102892.75;;;4.32;100.00
52535;BME280;38443;53.164;5.802;2022-11-13T02:46:33;102893.75;;;4.36;100.00
52535;BME280;38443;53.164;5.802;2022-11-13T02:48:58;102887.56;;;4.37;100.00
52535;BME280;38443;53.164;5.802;2022-11-13T02:51:24;102897.28;;;4.36;100.00
52535;BME280;38443;53.164;5.802;2022-11-13T02:53:51;102892.84;;;4.35;100.00
52535;BME280;38443;53.164;5.802;2022-11-13T02:56:17;102893.75;;;4.36;100.00
52535;BME280;38443;53.164;5.802;2022-11-13T02:58:42;102893.75;;;4.36;100.00
52535;BME280;38443;53.164;5.802;2022-11-13T03:01:08;102893.75;;;4.36;100.00
52535;BME280;38443;53.164;5.802;2022-11-13T03:03:33;102891.00;;;4.33;100.00
52535;BME280;38443;53.164;5.802;2022-11-13T03:05:59;102891.00;;;4.33;100.00
52535;BME280;38443;53.164;5.802;2022-11-13T03:08:24;102879.44;;;4.31;100.00
52535;BME280;38443;53.164;5.802;2022-11-13T03:10:53;102875.13;;;4.34;100.00
52535;BME280;38443;53.164;5.802;2022-11-13T03:13:18;102875.19;;;4.36;100.00
52535;BME280;38443;53.164;5.802;2022-11-13T03:15:44;102869.88;;;4.36;100.00
52535;BME280;38443;53.164;5.802;2022-11-13T03:18:09;102867.19;;;4.34;100.00
52535;BME280;38443;53.164;5.802;2022-11-13T03:20:39;102865.44;;;4.35;100.00
52535;BME280;38443;53.164;5.802;2022-11-13T03:23:05;102863.69;;;4.35;100.00
52535;BME280;38443;53.164;5.802;2022-11-13T03:25:32;102863.69;;;4.35;100.00
52535;BME280;38443;53.164;5.802;2022-11-13T03:27:57;102868.19;;;4.38;100.00
52535;BME280;38443;53.164;5.802;2022-11-13T03:30:23;102860.22;;;4.38;100.00
52535;BME280;38443;53.164;5.802;2022-11-13T03:32:51;102854.88;;;4.36;100.00
52535;BME280;38443;53.164;5.802;2022-11-13T03:35:17;102851.44;;;4.39;100.00
52535;BME280;38443;53.164;5.802;2022-11-13T03:37:42;102849.69;;;4.39;100.00
52535;BME280;38443;53.164;5.802;2022-11-13T03:40:07;102851.28;;;4.34;100.00
52535;BME280;38443;53.164;5.802;2022-11-13T03:42:33;102842.44;;;4.34;100.00
52535;BME280;38443;53.164;5.802;2022-11-13T03:44:59;102847.63;;;4.31;100.00
52535;BME280;38443;53.164;5.802;2022-11-13T03:47:24;102841.50;;;4.32;100.00
52535;BME280;38443;53.164;5.802;2022-11-13T03:49:49;102842.31;;;4.29;100.00
52535;BME280;38443;53.164;5.802;2022-11-13T03:52:14;102832.59;;;4.30;100.00
52535;BME280;38443;53.164;5.802;2022-11-13T03:54:40;102833.41;;;4.27;100.00
52535;BME280;38443;53.164;5.802;2022-11-13T03:57:05;102831.66;;;4.28;100.00
52535;BME280;38443;53.164;5.802;2022-11-13T03:59:30;102824.66;;;4.30;100.00
52535;BME280;38443;53.164;5.802;2022-11-13T04:01:56;102827.34;;;4.31;100.00
52535;BME280;38443;53.164;5.802;2022-11-13T04:04:21;102830.84;;;4.30;100.00
52535;BME280;38443;53.164;5.802;2022-11-13T04:06:46;102821.13;;;4.31;100.00
52535;BME280;38443;53.164;5.802;2022-11-13T04:09:12;102816.59;;;4.27;100.00
52535;BME280;38443;53.164;5.802;2022-11-13T04:11:37;102822.75;;;4.26;100.00
52535;BME280;38443;53.164;5.802;2022-11-13T04:14:02;102820.88;;;4.22;100.00
52535;BME280;38443;53.164;5.802;2022-11-13T04:16:27;102827.97;;;4.23;100.00
52535;BME280;38443;53.164;5.802;2022-11-13T04:18:53;102835.84;;;4.19;100.00
52535;BME280;38443;53.164;5.802;2022-11-13T04:21:18;102828.72;;;4.17;100.00
52535;BME280;38443;53.164;5.802;2022-11-13T04:23:43;102827.72;;;4.15;100.00
52535;BME280;38443;53.164;5.802;2022-11-13T04:26:09;102827.78;;;4.16;100.00
52535;BME280;38443;53.164;5.802;2022-11-13T04:28:34;102824.25;;;4.16;100.00
52535;BME280;38443;53.164;5.802;2022-11-13T04:31:00;102817.19;;;4.16;100.00
52535;BME280;38443;53.164;5.802;2022-11-13T04:33:25;102819.84;;;4.16;100.00
52535;BME280;38443;53.164;5.802;2022-11-13T04:35:50;102809.22;;;4.16;100.00
52535;BME280;38443;53.164;5.802;2022-11-13T04:38:15;102815.47;;;4.17;100.00
52535;BME280;38443;53.164;5.802;2022-11-13T04:40:41;102814.41;;;4.12;100.00
52535;BME280;38443;53.164;5.802;2022-11-13T04:43:06;102815.31;;;4.12;100.00
52535;BME280;38443;53.164;5.802;2022-11-13T04:45:31;102806.34;;;4.09;100.00
52535;BME280;38443;53.164;5.802;2022-11-13T04:47:57;102805.56;;;4.11;100.00
52535;BME280;38443;53.164;5.802;2022-11-13T04:50:22;102804.69;;;4.12;100.00
52535;BME280;38443;53.164;5.802;2022-11-13T04:52:48;102806.53;;;4.15;100.00
52535;BME280;38443;53.164;5.802;2022-11-13T04:55:13;102812.81;;;4.17;100.00
52535;BME280;38443;53.164;5.802;2022-11-13T04:57:39;102818.06;;;4.15;100.00
52535;BME280;38443;53.164;5.802;2022-11-13T05:00:07;102815.47;;;4.17;100.00
52535;BME280;38443;53.164;5.802;2022-11-13T05:02:33;102814.59;;;4.18;100.00
52535;BME280;38443;53.164;5.802;2022-11-13T05:04:58;102813.75;;;4.19;100.00
52535;BME280;38443;53.164;5.802;2022-11-13T05:07:24;102822.59;;;4.19;100.00
52535;BME280;38443;53.164;5.802;2022-11-13T05:09:51;102815.53;;;4.20;100.00
52535;BME280;38443;53.164;5.802;2022-11-13T05:12:16;102804.97;;;4.22;100.00
52535;BME280;38443;53.164;5.802;2022-11-13T05:14:42;102818.28;;;4.23;100.00
52535;BME280;38443;53.164;5.802;2022-11-13T05:17:08;102812.06;;;4.23;100.00
52535;BME280;38443;53.164;5.802;2022-11-13T05:19:34;102817.34;;;4.21;100.00
52535;BME280;38443;53.164;5.802;2022-11-13T05:22:00;102806.69;;;4.19;100.00
52535;BME280;38443;53.164;5.802;2022-11-13T05:24:26;102803.16;;;4.19;100.00
52535;BME280;38443;53.164;5.802;2022-11-13T05:26:51;102800.53;;;4.20;100.00
52535;BME280;38443;53.164;5.802;2022-11-13T05:29:17;102797.88;;;4.20;100.00
52535;BME280;38443;53.164;5.802;2022-11-13T05:31:42;102792.56;;;4.20;100.00
52535;BME280;38443;53.164;5.802;2022-11-13T05:34:08;102787.25;;;4.19;100.00
52535;BME280;38443;53.164;5.802;2022-11-13T05:36:33;102793.38;;;4.18;100.00
52535;BME280;38443;53.164;5.802;2022-11-13T05:38:58;102789.84;;;4.17;100.00
52535;BME280;38443;53.164;5.802;2022-11-13T05:41:24;102786.31;;;4.18;100.00
52535;BME280;38443;53.164;5.802;2022-11-13T05:43:50;102780.13;;;4.18;100.00
52535;BME280;38443;53.164;5.802;2022-11-13T05:48:43;102769.47;;;4.16;100.00
52535;BME280;38443;53.164;5.802;2022-11-13T05:51:11;102761.47;;;4.13;100.00
52535;BME280;38443;53.164;5.802;2022-11-13T05:53:37;102770.25;;;4.12;100.00
52535;BME280;38443;53.164;5.802;2022-11-13T05:56:06;102764.00;;;4.10;100.00
52535;BME280;38443;53.164;5.802;2022-11-13T05:58:32;102759.53;;;4.08;100.00
52535;BME280;38443;53.164;5.802;2022-11-13T06:01:14;102757.66;;;4.04;100.00
52535;BME280;38443;53.164;5.802;2022-11-13T06:03:40;102760.25;;;4.02;100.00
52535;BME280;38443;53.164;5.802;2022-11-13T06:06:12;102764.59;;;4.00;100.00
52535;BME280;38443;53.164;5.802;2022-11-13T06:08:38;102766.31;;;3.98;100.00
52535;BME280;38443;53.164;5.802;2022-11-13T06:11:06;102774.97;;;3.92;100.00
52535;BME280;38443;53.164;5.802;2022-11-13T06:13:32;102773.97;;;3.89;100.00
52535;BME280;38443;53.164;5.802;2022-11-13T06:16:03;102771.25;;;3.86;100.00
52535;BME280;38443;53.164;5.802;2022-11-13T06:18:29;102763.22;;;3.83;100.00
52535;BME280;38443;53.164;5.802;2022-11-13T06:20:59;102754.41;;;3.84;100.00
52535;BME280;38443;53.164;5.802;2022-11-13T06:23:24;102753.59;;;3.86;100.00
52535;BME280;38443;53.164;5.802;2022-11-13T06:25:49;102757.19;;;3.88;100.00
52535;BME280;38443;53.164;5.802;2022-11-13T06:28:15;102753.72;;;3.89;100.00
52535;BME280;38443;53.164;5.802;2022-11-13T06:30:40;102750.13;;;3.89;100.00
52535;BME280;38443;53.164;5.802;2022-11-13T06:33:05;102754.50;;;3.87;100.00
52535;BME280;38443;53.164;5.802;2022-11-13T06:35:30;102755.31;;;3.84;100.00
52535;BME280;38443;53.164;5.802;2022-11-13T06:37:56;102742.03;;;3.83;100.00
52535;BME280;38443;53.164;5.802;2022-11-13T06:40:21;102749.03;;;3.80;100.00
52535;BME280;38443;53.164;5.802;2022-11-13T06:42:46;102753.44;;;3.80;100.00
52535;BME280;38443;53.164;5.802;2022-11-13T06:45:12;102742.00;;;3.81;100.00
52535;BME280;38443;53.164;5.802;2022-11-13T06:47:37;102733.19;;;3.82;100.00
52535;BME280;38443;53.164;5.802;2022-11-13T06:50:03;102744.59;;;3.79;100.00
52535;BME280;38443;53.164;5.802;2022-11-13T06:52:28;102757.84;;;3.79;100.00
52535;BME280;38443;53.164;5.802;2022-11-13T06:54:53;102760.50;;;3.79;100.00
52535;BME280;38443;53.164;5.802;2022-11-13T06:57:18;102746.31;;;3.77;100.00
52535;BME280;38443;53.164;5.802;2022-11-13T06:59:47;102741.84;;;3.76;100.00
52535;BME280;38443;53.164;5.802;2022-11-13T07:02:13;102748.06;;;3.78;100.00
52535;BME280;38443;53.164;5.802;2022-11-13T07:04:38;102743.81;;;3.84;100.00
52535;BME280;38443;53.164;5.802;2022-11-13T07:07:03;102750.97;;;3.86;100.00
52535;BME280;38443;53.164;5.802;2022-11-13T07:09:29;102742.25;;;3.90;100.00
52535;BME280;38443;53.164;5.802;2022-11-13T07:11:55;102745.75;;;3.89;100.00
52535;BME280;38443;53.164;5.802;2022-11-13T07:14:20;102747.66;;;3.93;100.00
52535;BME280;38443;53.164;5.802;2022-11-13T07:16:46;102742.41;;;3.95;100.00
52535;BME280;38443;53.164;5.802;2022-11-13T07:19:11;102744.28;;;3.99;100.00
52535;BME280;38443;53.164;5.802;2022-11-13T07:21:36;102740.81;;;4.02;100.00
52535;BME280;38443;53.164;5.802;2022-11-13T07:24:01;102737.28;;;4.03;100.00
52535;BME280;38443;53.164;5.802;2022-11-13T07:26:30;102741.75;;;4.04;100.00
52535;BME280;38443;53.164;5.802;2022-11-13T07:28:55;102740.00;;;4.04;100.00
52535;BME280;38443;53.164;5.802;2022-11-13T07:31:21;102736.53;;;4.07;100.00
52535;BME280;38443;53.164;5.802;2022-11-13T07:33:47;102740.13;;;4.09;100.00
52535;BME280;38443;53.164;5.802;2022-11-13T07:36:13;102740.22;;;4.12;100.00
52535;BME280;38443;53.164;5.802;2022-11-13T07:38:39;102733.31;;;4.18;100.00
52535;BME280;38443;53.164;5.802;2022-11-13T07:41:04;102734.41;;;4.27;100.00
52535;BME280;38443;53.164;5.802;2022-11-13T07:43:30;102722.22;;;4.32;100.00
52535;BME280;38443;53.164;5.802;2022-11-13T07:45:57;102724.97;;;4.36;100.00
52535;BME280;38443;53.164;5.802;2022-11-13T07:48:23;102727.72;;;4.39;100.00
52535;BME280;38443;53.164;5.802;2022-11-13T07:50:49;102726.06;;;4.43;100.00
52535;BME280;38443;53.164;5.802;2022-11-13T07:53:16;102726.72;;;4.69;100.00
52535;BME280;38443;53.164;5.802;2022-11-13T07:55:41;102715.78;;;5.30;100.00
52535;BME280;38443;53.164;5.802;2022-11-13T07:58:08;102714.47;;;5.93;100.00
52535;BME280;38443;53.164;5.802;2022-11-13T08:00:34;102720.75;;;6.42;100.00
52535;BME280;38443;53.164;5.802;2022-11-13T08:03:06;102717.88;;;6.80;100.00
52535;BME280;38443;53.164;5.802;2022-11-13T08:05:32;102710.38;;;7.12;100.00
52535;BME280;38443;53.164;5.802;2022-11-13T08:07:58;102707.34;;;6.89;99.67
52535;BME280;38443;53.164;5.802;2022-11-13T08:10:23;102706.56;;;6.42;97.96
52535;BME280;38443;53.164;5.802;2022-11-13T08:12:57;102705.16;;;6.13;99.66
52535;BME280;38443;53.164;5.802;2022-11-13T08:15:22;102705.63;;;5.94;100.00
52535;BME280;38443;53.164;5.802;2022-11-13T08:17:57;102700.00;;;5.78;100.00
52535;BME280;38443;53.164;5.802;2022-11-13T08:20:24;102702.53;;;5.72;100.00
52535;BME280;38443;53.164;5.802;2022-11-13T08:22:50;102698.06;;;5.70;100.00
52535;BME280;38443;53.164;5.802;2022-11-13T08:25:15;102701.53;;;5.67;100.00
52535;BME280;38443;53.164;5.802;2022-11-13T08:27:41;102698.94;;;5.70;100.00
52535;BME280;38443;53.164;5.802;2022-11-13T08:30:08;102703.41;;;5.73;100.00
52535;BME280;38443;53.164;5.802;2022-11-13T08:32:33;102693.75;;;5.76;100.00
52535;BME280;38443;53.164;5.802;2022-11-13T08:34:59;102699.16;;;5.81;100.00
52535;BME280;38443;53.164;5.802;2022-11-13T08:37:24;102701.00;;;5.84;100.00
52535;BME280;38443;53.164;5.802;2022-11-13T08:39:49;102698.34;;;5.85;100.00
52535;BME280;38443;53.164;5.802;2022-11-13T08:42:15;102686.88;;;5.86;100.00
52535;BME280;38443;53.164;5.802;2022-11-13T08:44:40;102690.47;;;5.88;100.00
52535;BME280;38443;53.164;5.802;2022-11-13T08:47:06;102694.13;;;5.93;100.00
52535;BME280;38443;53.164;5.802;2022-11-13T08:49:31;102683.56;;;5.96;100.00
52535;BME280;38443;53.164;5.802;2022-11-13T08:51:56;102688.03;;;5.99;100.00
52535;BME280;38443;53.164;5.802;2022-11-13T08:54:22;102677.47;;;6.02;100.00
52535;BME280;38443;53.164;5.802;2022-11-13T08:56:47;102683.75;;;6.07;100.00
52535;BME280;38443;53.164;5.802;2022-11-13T08:59:13;102680.28;;;6.11;100.00
52535;BME280;38443;53.164;5.802;2022-11-13T09:01:38;102685.75;;;6.17;100.00
52535;BME280;38443;53.164;5.802;2022-11-13T09:04:04;102676.16;;;6.26;100.00
52535;BME280;38443;53.164;5.802;2022-11-13T09:06:29;102686.13;;;6.39;100.00
52535;BME280;38443;53.164;5.802;2022-11-13T09:08:54;102681.88;;;6.50;100.00
52535;BME280;38443;53.164;5.802;2022-11-13T09:11:20;102675.03;;;6.65;100.00
52535;BME280;38443;53.164;5.802;2022-11-13T09:13:46;102677.13;;;6.84;100.00
52535;BME280;38443;53.164;5.802;2022-11-13T09:16:12;102680.00;;;6.98;100.00
52535;BME280;38443;53.164;5.802;2022-11-13T09:18:37;102678.47;;;7.15;100.00
52535;BME280;38443;53.164;5.802;2022-11-13T09:21:02;102687.63;;;7.34;99.54
52535;BME280;38443;53.164;5.802;2022-11-13T09:23:28;102684.31;;;7.52;99.02
52535;BME280;38443;53.164;5.802;2022-11-13T09:25:54;102678.28;;;7.67;98.68
52535;BME280;38443;53.164;5.802;2022-11-13T09:28:20;102672.19;;;7.76;95.88
52535;BME280;38443;53.164;5.802;2022-11-13T09:30:45;102673.22;;;7.90;97.21
52535;BME280;38443;53.164;5.802;2022-11-13T09:33:10;102664.47;;;8.04;95.64
52535;BME280;38443;53.164;5.802;2022-11-13T09:35:40;102677.06;;;8.18;96.39
52535;BME280;38443;53.164;5.802;2022-11-13T09:38:08;102660.31;;;8.32;97.08
52535;BME280;38443;53.164;5.802;2022-11-13T09:40:38;102663.03;;;8.39;95.27
52535;BME280;38443;53.164;5.802;2022-11-13T09:43:14;102655.16;;;8.52;94.80
52535;BME280;38443;53.164;5.802;2022-11-13T09:45:41;102655.22;;;8.56;92.94
52535;BME280;38443;53.164;5.802;2022-11-13T09:48:53;102649.94;;;8.63;90.13
52535;BME280;38443;53.164;5.802;2022-11-13T09:50:52;102651.78;;;8.73;92.74
52535;BME280;38443;53.164;5.802;2022-11-13T09:53:18;102655.38;;;8.79;90.71
52535;BME280;38443;53.164;5.802;2022-11-13T09:55:54;102644.75;;;8.83;91.93
52535;BME280;38443;53.164;5.802;2022-11-13T09:58:32;102638.53;;;8.90;91.43
52535;BME280;38443;53.164;5.802;2022-11-13T10:01:13;102640.34;;;8.94;91.15
52535;BME280;38443;53.164;5.802;2022-11-13T10:03:45;102630.63;;;9.01;91.16
52535;BME280;38443;53.164;5.802;2022-11-13T10:06:26;102636.00;;;9.11;92.75
52535;BME280;38443;53.164;5.802;2022-11-13T10:08:59;102636.09;;;9.22;94.32
52535;BME280;38443;53.164;5.802;2022-11-13T10:11:39;102641.44;;;9.30;93.70
52535;BME280;38443;53.164;5.802;2022-11-13T10:14:16;102637.03;;;9.36;94.02
52535;BME280;38443;53.164;5.802;2022-11-13T10:16:47;102635.28;;;9.42;93.77
52535;BME280;38443;53.164;5.802;2022-11-13T10:19:35;102627.25;;;9.43;90.46
52535;BME280;38443;53.164;5.802;2022-11-13T10:22:13;102627.28;;;9.48;90.52
52535;BME280;38443;53.164;5.802;2022-11-13T10:24:43;102621.97;;;9.55;92.79
52535;BME280;38443;53.164;5.802;2022-11-13T10:27:10;102624.66;;;9.63;92.26
52535;BME280;38443;53.164;5.802;2022-11-13T10:29:36;102624.69;;;9.69;92.33
52535;BME280;38443;53.164;5.802;2022-11-13T10:32:18;102622.91;;;9.70;88.02
52535;BME280;38443;53.164;5.802;2022-11-13T10:34:48;102618.47;;;9.78;91.46
52535;BME280;38443;53.164;5.802;2022-11-13T10:37:59;102615.78;;;9.84;89.65
52535;BME280;38443;53.164;5.802;2022-11-13T10:40:31;102609.59;;;9.91;90.36
52535;BME280;38443;53.164;5.802;2022-11-13T10:43:05;102611.38;;;9.95;89.09
52535;BME280;38443;53.164;5.802;2022-11-13T10:45:31;102608.69;;;10.00;89.89
52535;BME280;38443;53.164;5.802;2022-11-13T10:47:56;102609.59;;;9.99;86.84
52535;BME280;38443;53.164;5.802;2022-11-13T10:52:48;102606.03;;;9.98;84.37
52535;BME280;38443;53.164;5.802;2022-11-13T10:58:12;102581.97;;;10.03;85.63
52535;BME280;38443;53.164;5.802;2022-11-13T11:00:39;102590.00;;;10.11;87.99
52535;BME280;38443;53.164;5.802;2022-11-13T11:03:21;102582.88;;;10.14;85.32
52535;BME280;38443;53.164;5.802;2022-11-13T11:05:56;102583.75;;;10.23;86.96
52535;BME280;38443;53.164;5.802;2022-11-13T11:08:33;102579.31;;;10.25;84.12
52535;BME280;38443;53.164;5.802;2022-11-13T11:11:21;102569.50;;;10.30;87.06
52535;BME280;38443;53.164;5.802;2022-11-13T11:14:25;102567.75;;;10.36;84.07
52535;BME280;38443;53.164;5.802;2022-11-13T11:16:51;102561.47;;;10.44;86.21
52535;BME280;38443;53.164;5.802;2022-11-13T11:19:20;102555.25;;;10.52;85.94
52535;BME280;38443;53.164;5.802;2022-11-13T11:21:48;102547.16;;;10.60;85.23
52535;BME280;38443;53.164;5.802;2022-11-13T11:24:41;102540.00;;;10.68;85.85
52535;BME280;38443;53.164;5.802;2022-11-13T11:27:32;102542.66;;;10.76;84.65
52535;BME280;38443;53.164;5.802;2022-11-13T11:30:05;102538.19;;;10.81;85.36
52535;BME280;38443;53.164;5.802;2022-11-13T11:32:55;102533.72;;;10.83;81.38
52535;BME280;38443;53.164;5.802;2022-11-13T11:35:37;102534.59;;;10.90;88.06
52535;BME280;38443;53.164;5.802;2022-11-13T11:38:10;102526.56;;;10.94;87.84
52535;BME280;38443;53.164;5.802;2022-11-13T11:40:41;102522.97;;;10.95;87.98
52535;BME280;38443;53.164;5.802;2022-11-13T11:43:38;102537.25;;;10.96;79.26
52535;BME280;38443;53.164;5.802;2022-11-13T11:46:09;102520.28;;;10.95;82.98
52535;BME280;38443;53.164;5.802;2022-11-13T11:48:35;102515.84;;;10.94;85.82
52535;BME280;38443;53.164;5.802;2022-11-13T11:56:39;102510.53;;;10.79;85.50
52535;BME280;38443;53.164;5.802;2022-11-13T11:59:27;102511.44;;;10.76;83.61
52535;BME280;38443;53.164;5.802;2022-11-13T12:02:30;102514.97;;;10.82;84.25
52535;BME280;38443;53.164;5.802;2022-11-13T12:05:16;102514.97;;;10.83;86.28
52535;BME280;38443;53.164;5.802;2022-11-13T12:08:06;102516.78;;;10.83;83.32
52535;BME280;38443;53.164;5.802;2022-11-13T12:10:44;102513.19;;;10.84;82.97
52535;BME280;38443;53.164;5.802;2022-11-13T12:13:27;102500.69;;;10.87;84.41
52535;BME280;38443;53.164;5.802;2022-11-13T12:16:12;102501.53;;;10.92;83.64
52535;BME280;38443;53.164;5.802;2022-11-13T12:22:01;102494.34;;;11.05;81.51
52535;BME280;38443;53.164;5.802;2022-11-13T12:30:17;102483.50;;;11.28;80.04
52535;BME280;38443;53.164;5.802;2022-11-13T12:33:10;102472.63;;;11.53;77.66
52535;BME280;38443;53.164;5.802;2022-11-13T12:35:39;102469.75;;;11.76;82.57
52535;BME280;38443;53.164;5.802;2022-11-13T12:38:12;102472.31;;;11.94;75.34
52535;BME280;38443;53.164;5.802;2022-11-13T12:41:15;102457.88;;;12.08;74.92
52535;BME280;38443;53.164;5.802;2022-11-13T12:43:58;102450.56;;;12.24;70.23
52535;BME280;38443;53.164;5.802;2022-11-13T12:46:36;102442.25;;;12.47;75.62
52535;BME280;38443;53.164;5.802;2022-11-13T12:49:14;102444.69;;;12.67;74.89
52535;BME280;38443;53.164;5.802;2022-11-13T12:51:40;102437.47;;;12.72;80.37
52535;BME280;38443;53.164;5.802;2022-11-13T12:54:08;102441.34;;;12.49;78.70
52535;BME280;38443;53.164;5.802;2022-11-13T12:56:34;102443.31;;;12.32;80.60
52535;BME280;38443;53.164;5.802;2022-11-13T12:59:05;102436.47;;;12.05;72.48
52535;BME280;38443;53.164;5.802;2022-11-13T13:01:45;102426.69;;;11.97;78.93
52535;BME280;38443;53.164;5.802;2022-11-13T13:15:57;102413.53;;;11.62;75.64
52535;BME280;38443;53.164;5.802;2022-11-13T13:18:26;102407.31;;;11.58;75.87
52535;BME280;38443;53.164;5.802;2022-11-13T13:23:48;102402.00;;;11.54;75.32
52535;BME280;38443;53.164;5.802;2022-11-13T13:26:20;102396.63;;;11.52;78.19
52535;BME280;38443;53.164;5.802;2022-11-13T13:28:52;102392.19;;;11.51;77.91
52535;BME280;38443;53.164;5.802;2022-11-13T13:31:30;102385.94;;;11.51;78.05
52535;BME280;38443;53.164;5.802;2022-11-13T13:39:26;102369.91;;;11.45;79.30
52535;BME280;38443;53.164;5.802;2022-11-13T13:47:42;102377.19;;;11.29;80.73
52535;BME280;38443;53.164;5.802;2022-11-13T13:50:18;102378.13;;;11.20;79.29